createdAt,value
2023-05-21T00:00:14.031Z,20.55
2023-05-21T00:01:14.073Z,20.55
2023-05-21T00:02:14.137Z,20.54
2023-05-21T00:03:14.376Z,20.54
2023-05-21T00:04:14.317Z,20.54
2023-05-21T00:05:14.936Z,20.54
2023-05-21T00:06:14.425Z,20.54
2023-05-21T00:07:14.433Z,20.54
2023-05-21T00:08:14.466Z,20.54
2023-05-21T00:09:14.555Z,20.54
2023-05-21T00:10:14.642Z,20.53
2023-05-21T00:11:14.668Z,20.53
2023-05-21T00:12:14.727Z,20.53
2023-05-21T00:13:14.805Z,20.53
2023-05-21T00:14:14.865Z,20.52
2023-05-21T00:15:14.931Z,20.53
2023-05-21T00:16:16.949Z,20.52
2023-05-21T00:17:15.032Z,20.51
2023-05-21T00:18:15.107Z,20.50
2023-05-21T00:19:15.196Z,20.50
2023-05-21T00:20:15.238Z,20.50
2023-05-21T00:21:15.281Z,20.50
2023-05-21T00:22:15.338Z,20.50
2023-05-21T00:23:15.387Z,20.49
2023-05-21T00:24:15.529Z,20.48
2023-05-21T00:25:15.609Z,20.48
2023-05-21T00:26:15.542Z,20.47
2023-05-21T00:27:15.656Z,20.46
2023-05-21T00:28:15.647Z,20.46
2023-05-21T00:29:15.697Z,20.46
2023-05-21T00:30:15.704Z,20.45
2023-05-21T00:31:15.785Z,20.45
2023-05-21T00:32:15.813Z,20.46
2023-05-21T00:33:15.777Z,20.45
2023-05-21T00:34:15.827Z,20.44
2023-05-21T00:35:15.887Z,20.44
2023-05-21T00:36:15.902Z,20.44
2023-05-21T00:37:15.914Z,20.43
2023-05-21T00:38:15.972Z,20.43
2023-05-21T00:39:15.975Z,20.43
2023-05-21T00:40:15.968Z,20.42
2023-05-21T00:41:15.973Z,20.40
2023-05-21T00:42:16.006Z,20.40
2023-05-21T00:43:15.996Z,20.40
2023-05-21T00:44:16.000Z,20.40
2023-05-21T00:45:16.007Z,20.39
2023-05-21T00:46:16.083Z,20.39
2023-05-21T00:47:16.022Z,20.38
2023-05-21T00:48:16.040Z,20.37
2023-05-21T00:49:16.015Z,20.37
2023-05-21T00:50:15.993Z,20.38
2023-05-21T00:51:16.065Z,20.37
2023-05-21T00:52:16.018Z,20.37
2023-05-21T00:53:15.982Z,20.37
2023-05-21T00:54:16.000Z,20.37
2023-05-21T00:55:16.015Z,20.37
2023-05-21T00:56:16.017Z,20.37
2023-05-21T00:57:16.015Z,20.36
2023-05-21T00:58:15.993Z,20.35
2023-05-21T00:59:15.998Z,20.36
2023-05-21T01:00:16.011Z,20.35
2023-05-21T01:01:16.014Z,20.35
2023-05-21T01:02:15.984Z,20.34
2023-05-21T01:03:16.099Z,20.33
2023-05-21T01:04:15.958Z,20.32
2023-05-21T01:05:15.957Z,20.32
2023-05-21T01:06:15.956Z,20.31
2023-05-21T01:07:15.962Z,20.32
2023-05-21T01:08:15.957Z,20.32
2023-05-21T01:09:15.963Z,20.30
2023-05-21T01:10:15.985Z,20.30
2023-05-21T01:11:15.946Z,20.30
2023-05-21T01:12:15.938Z,20.30
2023-05-21T01:13:15.956Z,20.30
2023-05-21T01:14:15.962Z,20.31
2023-05-21T01:15:15.982Z,20.31
2023-05-21T01:16:15.949Z,20.30
2023-05-21T01:17:16.446Z,20.30
2023-05-21T01:18:16.075Z,20.29
2023-05-21T01:19:16.047Z,20.28
2023-05-21T01:20:15.921Z,20.28
2023-05-21T01:21:15.938Z,20.26
2023-05-21T01:22:15.961Z,20.27
2023-05-21T01:23:15.927Z,20.26
2023-05-21T01:24:15.960Z,20.25
2023-05-21T01:25:15.942Z,20.25
2023-05-21T01:26:16.168Z,20.24
2023-05-21T01:27:15.942Z,20.24
2023-05-21T01:28:15.957Z,20.24
2023-05-21T01:29:15.964Z,20.24
2023-05-21T01:30:15.924Z,20.24
2023-05-21T01:31:15.941Z,20.23
2023-05-21T01:32:15.955Z,20.23
2023-05-21T01:33:16.040Z,20.23
2023-05-21T01:34:15.983Z,20.23
2023-05-21T01:35:15.918Z,20.23
2023-05-21T01:36:16.017Z,20.22
2023-05-21T01:37:15.999Z,20.22
2023-05-21T01:38:15.972Z,20.22
2023-05-21T01:39:16.007Z,20.22
2023-05-21T01:40:15.889Z,20.22
2023-05-21T01:41:15.920Z,20.21
2023-05-21T01:42:16.024Z,20.19
2023-05-21T01:43:15.888Z,20.18
2023-05-21T01:44:15.902Z,20.19
2023-05-21T01:45:16.037Z,20.17
2023-05-21T01:46:15.921Z,20.18
2023-05-21T01:47:15.904Z,20.17
2023-05-21T01:48:15.909Z,20.17
2023-05-21T01:49:15.948Z,20.17
2023-05-21T01:50:15.998Z,20.17
2023-05-21T01:51:15.938Z,20.17
2023-05-21T01:52:15.956Z,20.16
2023-05-21T01:53:15.965Z,20.16
2023-05-21T01:54:15.987Z,20.16
2023-05-21T01:55:15.953Z,20.15
2023-05-21T01:56:15.960Z,20.16
2023-05-21T01:57:16.094Z,20.15
2023-05-21T01:58:15.994Z,20.16
2023-05-21T01:59:15.973Z,20.15
2023-05-21T02:00:16.030Z,20.16
2023-05-21T02:01:16.013Z,20.15
2023-05-21T02:02:16.199Z,20.13
2023-05-21T02:03:16.258Z,20.11
2023-05-21T02:04:16.063Z,20.11
2023-05-21T02:05:16.073Z,20.11
2023-05-21T02:06:16.206Z,20.11
2023-05-21T02:07:16.193Z,20.11
2023-05-21T02:08:16.217Z,20.10
2023-05-21T02:09:16.116Z,20.11
2023-05-21T02:10:16.201Z,20.11
2023-05-21T02:11:16.293Z,20.11
2023-05-21T02:12:16.155Z,20.11
2023-05-21T02:13:16.168Z,20.09
2023-05-21T02:14:16.157Z,20.10
2023-05-21T02:15:16.196Z,20.09
2023-05-21T02:16:16.261Z,20.09
2023-05-21T02:17:16.204Z,20.08
2023-05-21T02:18:16.736Z,20.09
2023-05-21T02:19:16.326Z,20.08
2023-05-21T02:20:16.320Z,20.07
2023-05-21T02:21:16.254Z,20.07
2023-05-21T02:22:16.276Z,20.07
2023-05-21T02:23:16.320Z,20.06
2023-05-21T02:24:16.279Z,20.05
2023-05-21T02:25:16.333Z,20.04
2023-05-21T02:26:16.328Z,20.05
2023-05-21T02:27:16.332Z,20.04
2023-05-21T02:28:16.369Z,20.04
2023-05-21T02:29:16.377Z,20.03
2023-05-21T02:30:16.402Z,20.02
2023-05-21T02:31:16.414Z,20.02
2023-05-21T02:32:16.428Z,20.02
2023-05-21T02:33:16.480Z,20.02
2023-05-21T02:34:16.517Z,20.02
2023-05-21T02:35:16.501Z,20.02
2023-05-21T02:36:16.516Z,20.02
2023-05-21T02:37:16.525Z,20.03
2023-05-21T02:38:16.561Z,20.03
2023-05-21T02:39:16.562Z,20.05
2023-05-21T02:40:16.595Z,20.04
2023-05-21T02:41:16.630Z,20.04
2023-05-21T02:42:16.613Z,20.03
2023-05-21T02:43:16.761Z,20.02
2023-05-21T02:44:16.683Z,20.01
2023-05-21T02:45:16.677Z,20.01
2023-05-21T02:46:16.779Z,20.02
2023-05-21T02:47:16.749Z,20.03
2023-05-21T02:48:16.752Z,20.02
2023-05-21T02:49:16.768Z,20.03
2023-05-21T02:50:16.798Z,20.03
2023-05-21T02:51:16.765Z,20.02
2023-05-21T02:52:16.808Z,20.01
2023-05-21T02:53:16.846Z,20.01
2023-05-21T02:54:16.851Z,20.02
2023-05-21T02:55:16.868Z,20.01
2023-05-21T02:56:16.841Z,20.00
2023-05-21T02:57:16.856Z,20.00
2023-05-21T02:58:16.923Z,19.99
2023-05-21T02:59:16.928Z,20.00
2023-05-21T03:00:16.928Z,20.01
2023-05-21T03:01:17.057Z,20.01
2023-05-21T03:02:17.004Z,20.00
2023-05-21T03:03:17.164Z,20.00
2023-05-21T03:04:16.977Z,20.00
2023-05-21T03:05:17.019Z,20.00
2023-05-21T03:06:17.012Z,19.99
2023-05-21T03:07:17.038Z,19.99
2023-05-21T03:08:17.047Z,19.98
2023-05-21T03:09:17.087Z,19.98
2023-05-21T03:10:17.106Z,19.98
2023-05-21T03:11:17.131Z,19.98
2023-05-21T03:12:17.121Z,19.99
2023-05-21T03:13:17.198Z,19.98
2023-05-21T03:14:17.168Z,19.98
2023-05-21T03:15:17.190Z,19.98
2023-05-21T03:16:17.246Z,19.97
2023-05-21T03:17:17.264Z,19.96
2023-05-21T03:18:17.250Z,19.96
2023-05-21T03:19:17.316Z,19.95
2023-05-21T03:20:17.301Z,19.95
2023-05-21T03:21:17.267Z,19.94
2023-05-21T03:22:17.296Z,19.94
2023-05-21T03:23:17.325Z,19.93
2023-05-21T03:24:17.356Z,19.92
2023-05-21T03:25:17.420Z,19.92
2023-05-21T03:26:17.411Z,19.91
2023-05-21T03:27:17.416Z,19.91
2023-05-21T03:28:17.443Z,19.92
2023-05-21T03:29:17.500Z,19.93
2023-05-21T03:30:17.532Z,19.95
2023-05-21T03:31:17.521Z,19.93
2023-05-21T03:32:17.635Z,19.93
2023-05-21T03:33:17.557Z,19.91
2023-05-21T03:34:17.561Z,19.92
2023-05-21T03:35:17.620Z,19.91
2023-05-21T03:36:17.619Z,19.90
2023-05-21T03:37:17.649Z,19.90
2023-05-21T03:38:17.653Z,19.90
2023-05-21T03:39:17.682Z,19.89
2023-05-21T03:40:17.719Z,19.88
2023-05-21T03:41:17.726Z,19.88
2023-05-21T03:42:17.744Z,19.87
2023-05-21T03:43:17.776Z,19.88
2023-05-21T03:44:17.807Z,19.86
2023-05-21T03:45:17.861Z,19.85
2023-05-21T03:46:17.858Z,19.85
2023-05-21T03:47:17.883Z,19.86
2023-05-21T03:48:17.916Z,19.85
2023-05-21T03:49:17.949Z,19.85
2023-05-21T03:50:17.997Z,19.85
2023-05-21T03:51:18.043Z,19.85
2023-05-21T03:52:18.054Z,19.84
2023-05-21T03:53:18.124Z,19.84
2023-05-21T03:54:18.069Z,19.85
2023-05-21T03:55:18.141Z,19.84
2023-05-21T03:56:18.125Z,19.83
2023-05-21T03:57:18.169Z,19.82
2023-05-21T03:58:18.210Z,19.82
2023-05-21T03:59:18.207Z,19.81
2023-05-21T04:00:18.274Z,19.82
2023-05-21T04:01:18.308Z,19.84
2023-05-21T04:02:18.454Z,19.83
2023-05-21T04:03:18.596Z,19.82
2023-05-21T04:04:18.452Z,19.80
2023-05-21T04:05:18.431Z,19.79
2023-05-21T04:06:18.436Z,19.78
2023-05-21T04:07:18.497Z,19.78
2023-05-21T04:08:18.536Z,19.77
2023-05-21T04:09:18.543Z,19.76
2023-05-21T04:10:18.595Z,19.76
2023-05-21T04:11:18.624Z,19.75
2023-05-21T04:12:18.684Z,19.76
2023-05-21T04:13:18.720Z,19.76
2023-05-21T04:14:18.752Z,19.74
2023-05-21T04:15:18.770Z,19.74
2023-05-21T04:16:18.879Z,19.74
2023-05-21T04:17:18.866Z,19.75
2023-05-21T04:18:18.917Z,19.74
2023-05-21T04:19:19.195Z,19.74
2023-05-21T04:20:18.992Z,19.75
2023-05-21T04:21:19.046Z,19.75
2023-05-21T04:22:19.064Z,19.75
2023-05-21T04:23:19.113Z,19.75
2023-05-21T04:24:19.154Z,19.76
2023-05-21T04:25:19.242Z,19.76
2023-05-21T04:26:19.238Z,19.75
2023-05-21T04:27:19.304Z,19.75
2023-05-21T04:28:19.343Z,19.75
2023-05-21T04:29:19.364Z,19.75
2023-05-21T04:30:19.397Z,19.74
2023-05-21T04:31:19.455Z,19.73
2023-05-21T04:32:19.494Z,19.74
2023-05-21T04:33:19.549Z,19.74
2023-05-21T04:34:19.589Z,19.74
2023-05-21T04:35:19.640Z,19.74
2023-05-21T04:36:19.636Z,19.73
2023-05-21T04:37:19.680Z,19.74
2023-05-21T04:38:19.786Z,19.75
2023-05-21T04:39:19.739Z,19.75
2023-05-21T04:40:19.795Z,19.74
2023-05-21T04:41:19.803Z,19.73
2023-05-21T04:42:19.855Z,19.73
2023-05-21T04:43:19.915Z,19.73
2023-05-21T04:44:19.953Z,19.72
2023-05-21T04:45:19.964Z,19.73
2023-05-21T04:46:20.151Z,19.73
2023-05-21T04:47:20.215Z,19.73
2023-05-21T04:48:20.089Z,19.72
2023-05-21T04:49:20.136Z,19.72
2023-05-21T04:50:20.156Z,19.73
2023-05-21T04:51:20.212Z,19.71
2023-05-21T04:52:20.274Z,19.72
2023-05-21T04:53:20.289Z,19.73
2023-05-21T04:54:20.308Z,19.73
2023-05-21T04:55:20.352Z,19.73
2023-05-21T04:56:20.381Z,19.73
2023-05-21T04:57:20.479Z,19.73
2023-05-21T04:58:20.493Z,19.73
2023-05-21T04:59:20.516Z,19.73
2023-05-21T05:00:20.568Z,19.73
2023-05-21T05:01:20.638Z,19.72
2023-05-21T05:02:20.647Z,19.72
2023-05-21T05:03:20.731Z,19.73
2023-05-21T05:04:20.708Z,19.73
2023-05-21T05:05:20.772Z,19.73
2023-05-21T05:06:20.802Z,19.74
2023-05-21T05:07:20.805Z,19.75
2023-05-21T05:08:20.832Z,19.75
2023-05-21T05:09:20.902Z,19.76
2023-05-21T05:10:20.901Z,19.76
2023-05-21T05:11:20.959Z,19.77
2023-05-21T05:12:21.010Z,19.77
2023-05-21T05:13:21.014Z,19.78
2023-05-21T05:14:21.074Z,19.79
2023-05-21T05:15:21.087Z,19.78
2023-05-21T05:16:21.163Z,19.79
2023-05-21T05:17:21.131Z,19.79
2023-05-21T05:18:21.142Z,19.79
2023-05-21T05:19:21.292Z,19.80
2023-05-21T05:20:21.226Z,19.81
2023-05-21T05:21:21.266Z,19.81
2023-05-21T05:22:21.288Z,19.81
2023-05-21T05:23:21.319Z,19.82
2023-05-21T05:24:21.351Z,19.82
2023-05-21T05:25:21.385Z,19.82
2023-05-21T05:26:21.998Z,19.83
2023-05-21T05:27:21.434Z,19.82
2023-05-21T05:28:21.452Z,19.84
2023-05-21T05:29:21.481Z,19.84
2023-05-21T05:30:21.536Z,19.83
2023-05-21T05:31:21.625Z,19.83
2023-05-21T05:32:21.601Z,19.84
2023-05-21T05:33:21.590Z,19.84
2023-05-21T05:34:21.634Z,19.85
2023-05-21T05:35:21.637Z,19.85
2023-05-21T05:36:21.683Z,19.84
2023-05-21T05:37:21.667Z,19.85
2023-05-21T05:38:21.700Z,19.85
2023-05-21T05:39:21.754Z,19.85
2023-05-21T05:40:21.803Z,19.85
2023-05-21T05:41:21.776Z,19.85
2023-05-21T05:42:21.779Z,19.85
2023-05-21T05:43:21.813Z,19.86
2023-05-21T05:44:21.833Z,19.86
2023-05-21T05:45:21.864Z,19.85
2023-05-21T05:46:21.951Z,19.85
2023-05-21T05:47:21.941Z,19.85
2023-05-21T05:48:21.927Z,19.85
2023-05-21T05:49:21.957Z,19.85
2023-05-21T05:50:21.970Z,19.84
2023-05-21T05:51:22.005Z,19.85
2023-05-21T05:52:22.007Z,19.85
2023-05-21T05:53:22.073Z,19.84
2023-05-21T05:54:22.058Z,19.85
2023-05-21T05:55:22.106Z,19.85
2023-05-21T05:56:22.168Z,19.85
2023-05-21T05:57:22.141Z,19.85
2023-05-21T05:58:22.182Z,19.85
2023-05-21T05:59:22.218Z,19.85
2023-05-21T06:00:22.255Z,19.85
2023-05-21T06:01:22.276Z,19.86
2023-05-21T06:02:22.378Z,19.85
2023-05-21T06:03:22.367Z,19.86
2023-05-21T06:04:22.339Z,19.86
2023-05-21T06:05:22.395Z,19.87
2023-05-21T06:06:22.451Z,19.88
2023-05-21T06:07:22.427Z,19.88
2023-05-21T06:08:22.474Z,19.89
2023-05-21T06:09:22.473Z,19.90
2023-05-21T06:10:22.499Z,19.90
2023-05-21T06:11:22.520Z,19.91
2023-05-21T06:12:22.513Z,19.91
2023-05-21T06:13:22.578Z,19.91
2023-05-21T06:14:22.568Z,19.92
2023-05-21T06:15:22.611Z,19.93
2023-05-21T06:16:22.671Z,19.95
2023-05-21T06:17:23.635Z,19.96
2023-05-21T06:18:22.661Z,19.96
2023-05-21T06:19:22.716Z,19.97
2023-05-21T06:20:22.710Z,19.99
2023-05-21T06:21:22.718Z,20.00
2023-05-21T06:22:24.902Z,20.01
2023-05-21T06:23:22.733Z,20.03
2023-05-21T06:24:22.729Z,20.03
2023-05-21T06:25:22.723Z,20.04
2023-05-21T06:26:22.723Z,20.05
2023-05-21T06:27:22.681Z,20.06
2023-05-21T06:28:22.689Z,20.06
2023-05-21T06:29:22.708Z,20.06
2023-05-21T06:30:22.714Z,20.07
2023-05-21T06:31:22.675Z,20.07
2023-05-21T06:32:22.746Z,20.08
2023-05-21T06:33:22.840Z,20.09
2023-05-21T06:34:22.674Z,20.09
2023-05-21T06:35:22.660Z,20.09
2023-05-21T06:36:22.647Z,20.11
2023-05-21T06:37:23.762Z,20.12
2023-05-21T06:38:22.628Z,20.11
2023-05-21T06:39:22.637Z,20.12
2023-05-21T06:40:22.602Z,20.12
2023-05-21T06:41:22.616Z,20.13
2023-05-21T06:42:22.576Z,20.13
2023-05-21T06:43:22.650Z,20.13
2023-05-21T06:44:22.638Z,20.13
2023-05-21T06:45:22.606Z,20.14
2023-05-21T06:46:22.583Z,20.15
2023-05-21T06:47:22.551Z,20.16
2023-05-21T06:48:22.543Z,20.15
2023-05-21T06:49:22.555Z,20.16
2023-05-21T06:50:22.535Z,20.16
2023-05-21T06:51:22.577Z,20.17
2023-05-21T06:52:22.519Z,20.17
2023-05-21T06:53:22.511Z,20.18
2023-05-21T06:54:22.604Z,20.18
2023-05-21T06:55:22.504Z,20.20
2023-05-21T06:56:22.508Z,20.20
2023-05-21T06:57:22.494Z,20.20
2023-05-21T06:58:22.497Z,20.21
2023-05-21T06:59:22.457Z,20.21
2023-05-21T07:00:22.547Z,20.23
2023-05-21T07:01:22.592Z,20.24
2023-05-21T07:02:22.472Z,20.23
2023-05-21T07:03:22.522Z,20.24
2023-05-21T07:04:22.472Z,20.25
2023-05-21T07:05:22.428Z,20.26
2023-05-21T07:06:22.429Z,20.26
2023-05-21T07:07:22.413Z,20.27
2023-05-21T07:08:22.402Z,20.28
2023-05-21T07:09:22.413Z,20.29
2023-05-21T07:10:22.381Z,20.29
2023-05-21T07:11:22.399Z,20.30
2023-05-21T07:12:22.375Z,20.30
2023-05-21T07:13:22.418Z,20.31
2023-05-21T07:14:22.388Z,20.32
2023-05-21T07:15:22.424Z,20.33
2023-05-21T07:16:22.450Z,20.32
2023-05-21T07:17:22.545Z,20.34
2023-05-21T07:18:22.481Z,20.35
2023-05-21T07:19:22.552Z,20.35
2023-05-21T07:20:22.472Z,20.36
2023-05-21T07:21:22.493Z,20.37
2023-05-21T07:22:22.507Z,20.38
2023-05-21T07:23:22.544Z,20.39
2023-05-21T07:24:23.546Z,20.40
2023-05-21T07:25:22.624Z,20.41
2023-05-21T07:26:22.661Z,20.42
2023-05-21T07:27:25.856Z,20.42
2023-05-21T07:28:22.681Z,20.43
2023-05-21T07:29:22.692Z,20.45
2023-05-21T07:30:22.668Z,20.45
2023-05-21T07:31:22.718Z,20.47
2023-05-21T07:32:22.703Z,20.48
2023-05-21T07:33:22.670Z,20.49
2023-05-21T07:34:22.661Z,20.50
2023-05-21T07:35:22.646Z,20.51
2023-05-21T07:36:22.633Z,20.51
2023-05-21T07:37:22.679Z,20.53
2023-05-21T07:38:22.589Z,20.54
2023-05-21T07:39:22.622Z,20.55
2023-05-21T07:40:22.632Z,20.55
2023-05-21T07:41:22.610Z,20.57
2023-05-21T07:42:22.568Z,20.57
2023-05-21T07:43:22.587Z,20.58
2023-05-21T07:44:22.589Z,20.58
2023-05-21T07:45:22.609Z,20.59
2023-05-21T07:46:22.628Z,20.60
2023-05-21T07:47:22.568Z,20.61
2023-05-21T07:48:22.542Z,20.61
2023-05-21T07:49:22.508Z,20.63
2023-05-21T07:50:22.552Z,20.64
2023-05-21T07:51:22.521Z,20.63
2023-05-21T07:52:22.578Z,20.64
2023-05-21T07:53:22.490Z,20.65
2023-05-21T07:54:22.519Z,20.65
2023-05-21T07:55:22.467Z,20.66
2023-05-21T07:56:22.479Z,20.68
2023-05-21T07:57:22.514Z,20.68
2023-05-21T07:58:22.551Z,20.69
2023-05-21T07:59:22.601Z,20.70
2023-05-21T08:00:22.676Z,20.71
2023-05-21T08:01:44.205Z,20.73
2023-05-21T08:02:44.241Z,20.73
2023-05-21T08:03:44.322Z,20.74
2023-05-21T08:04:44.168Z,20.75
2023-05-21T08:05:44.156Z,20.75
2023-05-21T08:06:44.178Z,20.76
2023-05-21T08:07:44.164Z,20.76
2023-05-21T08:08:44.127Z,20.77
2023-05-21T08:09:44.106Z,20.78
2023-05-21T08:10:44.090Z,20.80
2023-05-21T08:11:44.113Z,20.80
2023-05-21T08:12:44.119Z,20.82
2023-05-21T08:13:44.115Z,20.83
2023-05-21T08:14:44.079Z,20.83
2023-05-21T08:15:44.104Z,20.84
2023-05-21T08:16:44.098Z,20.85
2023-05-21T08:17:44.087Z,20.86
2023-05-21T08:18:44.102Z,20.87
2023-05-21T08:19:44.041Z,20.88
2023-05-21T08:20:44.032Z,20.90
2023-05-21T08:21:44.050Z,20.91
2023-05-21T08:22:44.031Z,20.92
2023-05-21T08:23:44.014Z,20.93
2023-05-21T08:24:43.998Z,20.94
2023-05-21T08:25:44.054Z,20.95
2023-05-21T08:26:44.022Z,20.96
2023-05-21T08:27:43.999Z,20.97
2023-05-21T08:28:43.967Z,20.97
2023-05-21T08:29:43.968Z,20.98
2023-05-21T08:30:43.971Z,20.99
2023-05-21T08:31:44.018Z,20.99
2023-05-21T08:32:44.005Z,21.00
2023-05-21T08:33:43.959Z,21.02
2023-05-21T08:34:43.955Z,21.01
2023-05-21T08:35:43.944Z,21.03
2023-05-21T08:36:43.919Z,21.03
2023-05-21T08:37:43.900Z,21.04
2023-05-21T08:38:43.902Z,21.05
2023-05-21T08:39:43.910Z,21.07
2023-05-21T08:40:43.887Z,21.08
2023-05-21T08:41:43.874Z,21.08
2023-05-21T08:42:43.886Z,21.10
2023-05-21T08:43:43.879Z,21.11
2023-05-21T08:44:43.880Z,21.11
2023-05-21T08:45:43.913Z,21.12
2023-05-21T08:46:43.885Z,21.12
2023-05-21T08:47:43.900Z,21.13
2023-05-21T08:48:43.851Z,21.14
2023-05-21T08:49:43.846Z,21.14
2023-05-21T08:50:43.831Z,21.16
2023-05-21T08:51:43.836Z,21.16
2023-05-21T08:52:43.853Z,21.17
2023-05-21T08:53:43.882Z,21.18
2023-05-21T08:54:43.878Z,21.19
2023-05-21T08:55:43.940Z,21.19
2023-05-21T08:56:43.938Z,21.20
2023-05-21T08:57:43.958Z,21.21
2023-05-21T08:58:43.971Z,21.22
2023-05-21T08:59:43.968Z,21.22
2023-05-21T09:00:43.994Z,21.23
2023-05-21T09:01:44.065Z,21.24
2023-05-21T09:02:44.161Z,21.25
2023-05-21T09:03:44.061Z,21.26
2023-05-21T09:04:44.098Z,21.27
2023-05-21T09:05:44.056Z,21.29
2023-05-21T09:06:44.070Z,21.28
2023-05-21T09:07:44.037Z,21.29
2023-05-21T09:08:44.081Z,21.30
2023-05-21T09:09:44.087Z,21.31
2023-05-21T09:10:44.106Z,21.33
2023-05-21T09:11:44.170Z,21.33
2023-05-21T09:12:44.174Z,21.34
2023-05-21T09:13:44.157Z,21.34
2023-05-21T09:14:44.225Z,21.35
2023-05-21T09:15:44.167Z,21.36
2023-05-21T09:16:44.206Z,21.36
2023-05-21T09:17:44.228Z,21.37
2023-05-21T09:18:44.196Z,21.38
2023-05-21T09:19:44.202Z,21.40
2023-05-21T09:20:44.195Z,21.41
2023-05-21T09:21:44.214Z,21.43
2023-05-21T09:22:44.191Z,21.45
2023-05-21T09:23:44.238Z,21.48
2023-05-21T09:24:44.204Z,21.49
2023-05-21T09:25:44.182Z,21.51
2023-05-21T09:26:44.286Z,21.52
2023-05-21T09:27:44.217Z,21.53
2023-05-21T09:28:44.196Z,21.54
2023-05-21T09:29:44.202Z,21.55
2023-05-21T09:30:44.199Z,21.55
2023-05-21T09:31:44.258Z,21.55
2023-05-21T09:32:44.192Z,21.55
2023-05-21T09:33:44.163Z,21.56
2023-05-21T09:34:44.186Z,21.57
2023-05-21T09:35:44.214Z,21.58
2023-05-21T09:36:44.304Z,21.58
2023-05-21T09:37:44.231Z,21.59
2023-05-21T09:38:44.231Z,21.61
2023-05-21T09:39:44.241Z,21.62
2023-05-21T09:40:44.295Z,21.62
2023-05-21T09:41:44.295Z,21.63
2023-05-21T09:42:44.356Z,21.64
2023-05-21T09:43:44.378Z,21.66
2023-05-21T09:44:44.379Z,21.66
2023-05-21T09:45:44.449Z,21.68
2023-05-21T09:46:44.521Z,21.69
2023-05-21T09:47:44.679Z,21.69
2023-05-21T09:48:44.545Z,21.70
2023-05-21T09:49:44.575Z,21.69
2023-05-21T09:50:44.618Z,21.69
2023-05-21T09:51:44.660Z,21.69
2023-05-21T09:52:44.668Z,21.70
2023-05-21T09:53:44.700Z,21.70
2023-05-21T09:54:44.744Z,21.70
2023-05-21T09:55:44.880Z,21.72
2023-05-21T09:56:44.847Z,21.72
2023-05-21T09:57:44.896Z,21.72
2023-05-21T09:58:44.946Z,21.74
2023-05-21T09:59:45.023Z,21.75
2023-05-21T10:00:45.048Z,21.75
2023-05-21T10:01:45.194Z,21.75
2023-05-21T10:02:45.181Z,21.78
2023-05-21T10:03:45.259Z,21.78
2023-05-21T10:04:45.337Z,21.79
2023-05-21T10:05:45.341Z,21.80
2023-05-21T10:06:45.368Z,21.80
2023-05-21T10:07:45.425Z,21.81
2023-05-21T10:08:45.504Z,21.81
2023-05-21T10:09:45.544Z,21.82
2023-05-21T10:10:45.623Z,21.83
2023-05-21T10:11:45.685Z,21.83
2023-05-21T10:12:45.734Z,21.84
2023-05-21T10:13:45.801Z,21.84
2023-05-21T10:14:45.888Z,21.83
2023-05-21T10:15:46.110Z,21.84
2023-05-21T10:16:46.131Z,21.84
2023-05-21T10:17:46.111Z,21.84
2023-05-21T10:18:46.107Z,21.84
2023-05-21T10:19:46.161Z,21.84
2023-05-21T10:20:46.237Z,21.84
2023-05-21T10:21:46.274Z,21.84
2023-05-21T10:22:46.351Z,21.85
2023-05-21T10:23:46.433Z,21.86
2023-05-21T10:24:46.469Z,21.87
2023-05-21T10:25:46.537Z,21.87
2023-05-21T10:26:46.586Z,21.87
2023-05-21T10:27:46.688Z,21.88
2023-05-21T10:28:46.716Z,21.88
2023-05-21T10:29:46.772Z,21.89
2023-05-21T10:30:46.863Z,21.89
2023-05-21T10:31:46.899Z,21.90
2023-05-21T10:32:47.058Z,21.91
2023-05-21T10:33:47.009Z,21.91
2023-05-21T10:34:47.070Z,21.92
2023-05-21T10:35:47.131Z,21.93
2023-05-21T10:36:47.200Z,21.93
2023-05-21T10:37:47.268Z,21.94
2023-05-21T10:38:47.276Z,21.94
2023-05-21T10:39:47.374Z,21.95
2023-05-21T10:40:47.436Z,21.96
2023-05-21T10:41:47.500Z,21.97
2023-05-21T10:42:47.556Z,21.97
2023-05-21T10:43:47.620Z,21.99
2023-05-21T10:44:47.676Z,22.00
2023-05-21T10:45:47.755Z,22.01
2023-05-21T10:46:47.772Z,22.03
2023-05-21T10:47:47.880Z,22.04
2023-05-21T10:48:47.855Z,22.05
2023-05-21T10:49:47.917Z,22.05
2023-05-21T10:50:47.970Z,22.05
2023-05-21T10:51:48.018Z,22.05
2023-05-21T10:52:48.059Z,22.06
2023-05-21T10:53:48.121Z,22.06
2023-05-21T10:54:48.177Z,22.05
2023-05-21T10:55:48.252Z,22.05
2023-05-21T10:56:48.912Z,22.05
2023-05-21T10:57:48.268Z,22.05
2023-05-21T10:58:48.356Z,22.05
2023-05-21T10:59:48.379Z,22.05
2023-05-21T11:00:48.524Z,22.04
2023-05-21T11:01:48.526Z,22.05
2023-05-21T11:02:48.599Z,22.06
2023-05-21T11:03:48.636Z,22.05
2023-05-21T11:04:48.656Z,22.06
2023-05-21T11:05:48.721Z,22.07
2023-05-21T11:06:48.741Z,22.08
2023-05-21T11:07:48.783Z,22.08
2023-05-21T11:08:48.841Z,22.09
2023-05-21T11:09:48.877Z,22.09
2023-05-21T11:10:48.977Z,22.11
2023-05-21T11:11:49.008Z,22.11
2023-05-21T11:12:49.038Z,22.11
2023-05-21T11:13:49.338Z,22.11
2023-05-21T11:14:49.146Z,22.11
2023-05-21T11:15:49.239Z,22.12
2023-05-21T11:16:49.278Z,22.12
2023-05-21T11:17:49.361Z,22.12
2023-05-21T11:18:49.361Z,22.13
2023-05-21T11:19:49.383Z,22.14
2023-05-21T11:20:49.432Z,22.14
2023-05-21T11:21:49.485Z,22.15
2023-05-21T11:22:49.502Z,22.16
2023-05-21T11:23:49.555Z,22.16
2023-05-21T11:24:50.899Z,22.17
2023-05-21T11:25:49.643Z,22.17
2023-05-21T11:26:49.743Z,22.18
2023-05-21T11:27:49.747Z,22.18
2023-05-21T11:28:49.788Z,22.18
2023-05-21T11:29:49.807Z,22.18
2023-05-21T11:30:49.902Z,22.18
2023-05-21T11:31:49.922Z,22.19
2023-05-21T11:32:50.001Z,22.18
2023-05-21T11:33:50.018Z,22.18
2023-05-21T11:34:50.087Z,22.18
2023-05-21T11:35:50.120Z,22.18
2023-05-21T11:36:50.225Z,22.18
2023-05-21T11:37:50.201Z,22.17
2023-05-21T11:38:50.232Z,22.17
2023-05-21T11:39:50.263Z,22.18
2023-05-21T11:40:50.341Z,22.18
2023-05-21T11:41:50.387Z,22.18
2023-05-21T11:42:50.407Z,22.16
2023-05-21T11:43:50.421Z,22.17
2023-05-21T11:44:50.466Z,22.16
2023-05-21T11:45:50.573Z,22.16
2023-05-21T11:46:50.680Z,22.17
2023-05-21T11:47:50.650Z,22.17
2023-05-21T11:48:50.663Z,22.17
2023-05-21T11:49:50.725Z,22.17
2023-05-21T11:50:50.779Z,22.17
2023-05-21T11:51:50.792Z,22.17
2023-05-21T11:52:50.830Z,22.17
2023-05-21T11:53:50.897Z,22.17
2023-05-21T11:54:50.992Z,22.17
2023-05-21T11:55:50.975Z,22.17
2023-05-21T11:56:51.049Z,22.16
2023-05-21T11:57:51.068Z,22.17
2023-05-21T11:58:51.099Z,22.17
2023-05-21T11:59:51.192Z,22.17
2023-05-21T12:00:51.233Z,22.16
2023-05-21T12:01:51.280Z,22.15
2023-05-21T12:02:51.449Z,22.15
2023-05-21T12:03:51.464Z,22.15
2023-05-21T12:04:51.450Z,22.15
2023-05-21T12:05:51.569Z,22.16
2023-05-21T12:06:51.562Z,22.16
2023-05-21T12:07:51.626Z,22.17
2023-05-21T12:08:51.681Z,22.16
2023-05-21T12:09:51.738Z,22.16
2023-05-21T12:10:51.821Z,22.17
2023-05-21T12:11:51.843Z,22.17
2023-05-21T12:12:55.704Z,22.18
2023-05-21T12:13:51.930Z,22.17
2023-05-21T12:14:51.894Z,22.18
2023-05-21T12:15:51.874Z,22.17
2023-05-21T12:16:51.999Z,22.17
2023-05-21T12:17:51.966Z,22.18
2023-05-21T12:18:51.914Z,22.17
2023-05-21T12:19:51.896Z,22.18
2023-05-21T12:20:51.872Z,22.18
2023-05-21T12:21:51.878Z,22.18
2023-05-21T12:22:51.863Z,22.18
2023-05-21T12:23:51.861Z,22.19
2023-05-21T12:24:51.905Z,22.19
2023-05-21T12:25:51.964Z,22.20
2023-05-21T12:26:52.010Z,22.20
2023-05-21T12:27:52.088Z,22.20
2023-05-21T12:28:52.097Z,22.21
2023-05-21T12:29:52.159Z,22.21
2023-05-21T12:30:52.246Z,22.20
2023-05-21T12:31:52.330Z,22.20
2023-05-21T12:32:52.406Z,22.21
2023-05-21T12:33:52.395Z,22.21
2023-05-21T12:34:52.451Z,22.20
2023-05-21T12:35:52.689Z,22.20
2023-05-21T12:36:52.600Z,22.21
2023-05-21T12:37:52.815Z,22.21
2023-05-21T12:38:52.681Z,22.21
2023-05-21T12:39:52.732Z,22.21
2023-05-21T12:40:52.787Z,22.21
2023-05-21T12:41:52.844Z,22.21
2023-05-21T12:42:52.907Z,22.22
2023-05-21T12:43:52.965Z,22.21
2023-05-21T12:44:53.018Z,22.21
2023-05-21T12:45:53.126Z,22.21
2023-05-21T12:46:53.135Z,22.21
2023-05-21T12:47:53.239Z,22.22
2023-05-21T12:48:53.207Z,22.22
2023-05-21T12:49:55.245Z,22.22
2023-05-21T12:50:53.371Z,22.21
2023-05-21T12:51:53.398Z,22.22
2023-05-21T12:52:53.483Z,22.22